createdAt,value
2023-01-10T00:00:39.596Z,0.50
2023-01-10T00:01:39.513Z,0.51
2023-01-10T00:02:39.610Z,0.51
2023-01-10T00:03:39.427Z,0.50
2023-01-10T00:04:39.577Z,0.50
2023-01-10T00:05:39.339Z,0.51
2023-01-10T00:55:35.023Z,0.50
2023-01-10T00:56:35.963Z,0.50
2023-01-10T00:57:35.942Z,0.50
2023-01-10T00:58:35.943Z,0.50
2023-01-10T00:59:35.899Z,0.50
2023-01-10T01:00:35.874Z,0.50
2023-01-10T01:01:36.031Z,0.43
2023-01-10T01:02:35.894Z,0.41
2023-01-10T01:03:35.795Z,0.42
2023-01-10T01:04:35.778Z,0.44
2023-01-10T01:05:35.759Z,0.49
2023-01-10T01:06:35.746Z,0.50
2023-01-10T01:07:35.716Z,0.50
2023-01-10T01:08:35.684Z,0.50
2023-01-10T01:09:35.663Z,0.50
2023-01-10T01:10:35.633Z,0.50
2023-01-10T01:11:35.649Z,0.50
2023-01-10T01:12:35.616Z,0.50
2023-01-10T01:13:35.567Z,0.50
2023-01-10T01:14:35.534Z,0.50
2023-01-10T01:15:35.549Z,0.50
2023-01-10T01:16:35.470Z,0.52
2023-01-10T01:17:35.446Z,0.51
2023-01-10T01:18:35.420Z,0.51
2023-01-10T01:19:35.377Z,0.50
2023-01-10T01:20:35.343Z,0.50
2023-01-10T01:21:35.303Z,0.50
2023-01-10T01:22:35.275Z,0.50
2023-01-10T01:23:35.241Z,0.50
2023-01-10T01:24:35.218Z,0.50
2023-01-10T01:25:35.179Z,0.50
2023-01-10T01:26:35.155Z,0.50
2023-01-10T01:27:35.185Z,0.50
2023-01-10T01:28:35.128Z,0.50
2023-01-10T01:29:42.969Z,0.50
2023-01-10T01:30:35.106Z,0.50
2023-01-10T01:31:35.047Z,0.50
2023-01-10T01:32:35.039Z,0.50
2023-01-10T01:33:35.030Z,0.50
2023-01-10T01:34:35.002Z,0.49
2023-01-10T01:35:34.958Z,0.50
2023-01-10T01:36:34.923Z,0.50
2023-01-10T01:37:34.888Z,0.50
2023-01-10T01:38:34.858Z,0.50
2023-01-10T01:39:34.836Z,0.50
2023-01-10T01:40:34.811Z,0.50
2023-01-10T01:41:34.776Z,0.50
2023-01-10T01:42:34.749Z,0.50
2023-01-10T01:43:34.745Z,0.51
2023-01-10T01:44:34.690Z,0.50
2023-01-10T01:45:34.691Z,0.50
2023-01-10T01:46:34.707Z,0.50
2023-01-10T01:47:34.617Z,0.50
2023-01-10T01:48:34.614Z,0.50
2023-01-10T01:49:34.579Z,0.51
2023-01-10T01:50:34.570Z,0.50
2023-01-10T01:51:34.537Z,0.50
2023-01-10T01:52:34.500Z,0.51
2023-01-10T01:53:34.479Z,0.50
2023-01-10T01:54:34.461Z,0.50
2023-01-10T01:55:34.481Z,0.50
2023-01-10T01:56:34.420Z,0.50
2023-01-10T01:57:34.368Z,0.50
2023-01-10T01:58:34.344Z,0.50
2023-01-10T01:59:34.349Z,0.50
2023-01-10T02:00:34.320Z,0.50
2023-01-10T02:01:34.377Z,0.51
2023-01-10T02:02:34.243Z,0.50
2023-01-10T02:03:34.213Z,0.50
2023-01-10T02:04:34.184Z,0.51
2023-01-10T02:05:34.163Z,0.50
2023-01-10T02:06:34.141Z,0.51
2023-01-10T02:07:34.104Z,0.50
2023-01-10T02:08:34.081Z,0.50
2023-01-10T02:09:34.053Z,0.51
2023-01-10T02:10:34.018Z,0.50
2023-01-10T02:11:33.994Z,0.51
2023-01-10T02:12:33.980Z,0.51
2023-01-10T02:13:33.932Z,0.51
2023-01-10T02:14:33.892Z,0.50
2023-01-10T02:15:33.891Z,0.50
2023-01-10T02:16:33.851Z,0.50
2023-01-10T02:17:33.817Z,0.51
2023-01-10T02:18:33.789Z,0.50
2023-01-10T02:19:33.766Z,0.51
2023-01-10T02:20:33.750Z,0.51
2023-01-10T02:21:33.730Z,0.51
2023-01-10T02:22:33.711Z,0.50
2023-01-10T02:23:33.699Z,0.50
2023-01-10T02:24:33.670Z,0.50
2023-01-10T02:25:33.654Z,0.51
2023-01-10T02:26:33.640Z,0.51
2023-01-10T02:27:33.617Z,0.50
2023-01-10T02:28:33.609Z,0.50
2023-01-10T02:29:33.587Z,0.51
2023-01-10T02:30:33.566Z,0.51
2023-01-10T02:31:33.683Z,0.50
2023-01-10T02:32:43.864Z,0.51
2023-01-10T02:33:33.492Z,0.51
2023-01-10T02:34:33.496Z,0.51
2023-01-10T02:35:33.446Z,0.51
2023-01-10T02:36:33.440Z,0.51
2023-01-10T02:37:33.411Z,0.51
2023-01-10T02:38:33.391Z,0.51
2023-01-10T02:39:33.376Z,0.51
2023-01-10T02:40:33.356Z,0.51
2023-01-10T02:41:33.339Z,0.51
2023-01-10T02:42:33.308Z,0.51
2023-01-10T02:43:33.281Z,0.51
2023-01-10T02:44:33.266Z,0.51
2023-01-10T02:45:33.241Z,0.51
2023-01-10T02:46:33.256Z,0.51
2023-01-10T02:47:33.212Z,0.51
2023-01-10T02:48:33.164Z,0.51
2023-01-10T02:49:33.145Z,0.51
2023-01-10T02:50:33.140Z,0.51
2023-01-10T02:51:33.111Z,0.51
2023-01-10T02:52:33.070Z,0.51
2023-01-10T02:53:33.044Z,0.51
2023-01-10T02:54:33.021Z,0.51
2023-01-10T02:55:33.000Z,0.51
2023-01-10T02:56:32.967Z,0.51
2023-01-10T02:57:32.943Z,0.51
2023-01-10T02:58:32.917Z,0.51
2023-01-10T02:59:32.891Z,0.51
2023-01-10T03:00:32.862Z,0.51
2023-01-10T03:01:32.973Z,0.51
2023-01-10T03:02:32.813Z,0.51
2023-01-10T03:03:32.816Z,0.51
2023-01-10T03:04:32.822Z,0.51
2023-01-10T03:05:32.739Z,0.51
2023-01-10T03:06:32.731Z,0.51
2023-01-10T03:07:32.688Z,0.51
2023-01-10T03:08:32.657Z,0.51
2023-01-10T03:09:34.383Z,0.51
2023-01-10T03:10:32.599Z,0.51
2023-01-10T03:11:32.567Z,0.51
2023-01-10T03:12:32.536Z,0.51
2023-01-10T03:13:32.518Z,0.51
2023-01-10T03:14:32.511Z,0.51
2023-01-10T03:15:32.480Z,0.51
2023-01-10T03:16:32.467Z,0.51
2023-01-10T03:17:32.426Z,0.51
2023-01-10T03:18:32.395Z,0.52
2023-01-10T03:19:32.388Z,0.51
2023-01-10T03:20:32.336Z,0.51
2023-01-10T03:21:32.306Z,0.51
2023-01-10T03:22:32.279Z,0.51
2023-01-10T03:23:32.244Z,0.51
2023-01-10T03:24:32.220Z,0.51
2023-01-10T03:25:32.177Z,0.51
2023-01-10T03:26:32.145Z,0.51
2023-01-10T03:27:32.124Z,0.51
2023-01-10T03:28:32.104Z,0.51
2023-01-10T03:29:32.067Z,0.51
2023-01-10T03:30:32.039Z,0.51
2023-01-10T03:31:32.120Z,0.51
2023-01-10T03:32:32.001Z,0.51
2023-01-10T03:33:31.973Z,0.51
2023-01-10T03:34:31.984Z,0.51
2023-01-10T03:35:31.948Z,0.51
2023-01-10T03:36:31.902Z,0.51
2023-01-10T03:37:31.875Z,0.51
2023-01-10T03:38:31.851Z,0.51
2023-01-10T03:39:31.845Z,0.51
2023-01-10T03:40:31.823Z,0.51
2023-01-10T03:41:31.792Z,0.51
2023-01-10T03:42:31.771Z,0.51
2023-01-10T03:43:31.744Z,0.51
2023-01-10T03:44:31.717Z,0.51
2023-01-10T03:45:31.694Z,0.51
2023-01-10T03:46:31.765Z,0.51
2023-01-10T03:47:31.628Z,0.51
2023-01-10T03:48:31.618Z,0.51
2023-01-10T03:49:31.591Z,0.51
2023-01-10T03:50:31.564Z,0.51
2023-01-10T03:51:31.583Z,0.51
2023-01-10T03:52:31.523Z,0.51
2023-01-10T03:53:31.503Z,0.51
2023-01-10T03:54:31.488Z,0.51
2023-01-10T03:55:31.460Z,0.51
2023-01-10T03:56:31.437Z,0.52
2023-01-10T03:57:31.423Z,0.51
2023-01-10T03:58:31.398Z,0.51
2023-01-10T03:59:31.373Z,0.51
2023-01-10T04:00:31.364Z,0.51
2023-01-10T04:01:31.451Z,0.51
2023-01-10T04:02:31.339Z,0.51
2023-01-10T04:03:31.282Z,0.51
2023-01-10T04:04:31.256Z,0.51
2023-01-10T04:05:31.248Z,0.51
2023-01-10T04:06:31.230Z,0.51
2023-01-10T04:07:31.229Z,0.51
2023-01-10T04:08:31.187Z,0.51
2023-01-10T04:09:31.179Z,0.51
2023-01-10T04:10:31.142Z,0.51
2023-01-10T04:11:31.124Z,0.51
2023-01-10T04:12:31.107Z,0.51
2023-01-10T04:13:31.096Z,0.51
2023-01-10T04:14:31.067Z,0.51
2023-01-10T04:15:31.029Z,0.51
2023-01-10T04:16:31.070Z,0.51
2023-01-10T04:17:31.006Z,0.51
2023-01-10T04:18:31.020Z,0.51
2023-01-10T04:19:30.970Z,0.51
2023-01-10T04:20:30.969Z,0.51
2023-01-10T04:21:30.940Z,0.51
2023-01-10T04:22:30.915Z,0.51
2023-01-10T04:23:30.929Z,0.51
2023-01-10T04:24:30.865Z,0.51
2023-01-10T04:25:31.662Z,0.51
2023-01-10T04:26:30.804Z,0.51
2023-01-10T04:27:30.776Z,0.51
2023-01-10T04:28:30.755Z,0.51
2023-01-10T04:29:30.738Z,0.51
2023-01-10T04:30:30.717Z,0.51
2023-01-10T04:31:30.814Z,0.51
2023-01-10T04:32:30.664Z,0.51
2023-01-10T04:33:30.638Z,0.51
2023-01-10T04:34:30.616Z,0.51
2023-01-10T04:35:30.605Z,0.51
2023-01-10T04:36:30.591Z,0.51
2023-01-10T04:37:30.567Z,0.51
2023-01-10T04:38:30.547Z,0.51
2023-01-10T04:39:30.543Z,0.51
2023-01-10T04:40:30.491Z,0.51
2023-01-10T04:41:30.468Z,0.51
2023-01-10T04:42:30.452Z,0.51
2023-01-10T04:43:30.441Z,0.51
2023-01-10T04:44:30.421Z,0.51
2023-01-10T04:45:30.430Z,0.51
2023-01-10T04:46:30.359Z,0.51
2023-01-10T04:47:30.341Z,0.51
2023-01-10T04:48:30.304Z,0.51
2023-01-10T04:49:30.285Z,0.51
2023-01-10T04:50:30.265Z,0.51
2023-01-10T04:51:30.245Z,0.51
2023-01-10T04:52:30.222Z,0.51
2023-01-10T04:53:30.192Z,0.51
2023-01-10T04:54:30.173Z,0.51
2023-01-10T04:55:30.165Z,0.51
2023-01-10T04:56:30.119Z,0.51
2023-01-10T04:57:30.089Z,0.51
2023-01-10T04:58:30.056Z,0.51
2023-01-10T04:59:30.023Z,0.51
2023-01-10T05:00:30.002Z,0.51
2023-01-10T05:01:30.061Z,0.51
2023-01-10T05:02:30.102Z,0.51
2023-01-10T05:03:29.927Z,0.51
2023-01-10T05:04:29.896Z,0.51
2023-01-10T05:05:29.862Z,0.51
2023-01-10T05:06:29.836Z,0.51
2023-01-10T05:07:29.806Z,0.50
2023-01-10T05:08:29.778Z,0.50
2023-01-10T05:09:29.754Z,0.51
2023-01-10T05:10:29.736Z,0.51
2023-01-10T05:11:29.735Z,0.51
2023-01-10T05:12:29.684Z,0.50
2023-01-10T05:13:29.665Z,0.51
2023-01-10T05:14:29.651Z,0.51
2023-01-10T05:15:29.613Z,0.51
2023-01-10T05:16:29.654Z,0.50
2023-01-10T05:17:29.578Z,0.51
2023-01-10T05:18:29.556Z,0.51
2023-01-10T05:19:29.562Z,0.51
2023-01-10T05:20:29.510Z,0.50
2023-01-10T05:21:29.498Z,0.51
2023-01-10T05:22:29.469Z,0.50
2023-01-10T05:23:29.474Z,0.50
2023-01-10T05:24:29.433Z,0.51
2023-01-10T05:25:29.398Z,0.50
2023-01-10T05:26:29.396Z,0.51
2023-01-10T05:27:29.384Z,0.50
2023-01-10T05:28:29.343Z,0.50
2023-01-10T05:29:29.330Z,0.50
2023-01-10T05:30:29.297Z,0.51
2023-01-10T05:31:29.313Z,0.51
2023-01-10T05:32:29.264Z,0.51
2023-01-10T05:33:29.249Z,0.51
2023-01-10T05:34:29.216Z,0.51
2023-01-10T05:35:29.191Z,0.50
2023-01-10T05:36:29.165Z,0.50
2023-01-10T05:37:29.142Z,0.50
2023-01-10T05:38:29.114Z,0.50
2023-01-10T05:39:29.107Z,0.50
2023-01-10T05:40:29.084Z,0.51
2023-01-10T05:41:29.060Z,0.50
2023-01-10T05:42:29.031Z,0.50
2023-01-10T05:43:29.034Z,0.50
2023-01-10T05:44:28.998Z,0.50
2023-01-10T05:45:28.973Z,0.51
2023-01-10T05:46:28.959Z,0.50
2023-01-10T05:47:28.938Z,0.51
2023-01-10T05:48:28.927Z,0.51
2023-01-10T05:49:28.914Z,0.51
2023-01-10T05:50:28.885Z,0.50
2023-01-10T05:51:28.877Z,0.51
2023-01-10T05:52:29.683Z,0.51
2023-01-10T05:53:28.825Z,0.51
2023-01-10T05:54:28.791Z,0.50
2023-01-10T05:55:28.774Z,0.50
2023-01-10T05:56:28.768Z,0.50
2023-01-10T05:57:28.745Z,0.50
2023-01-10T05:58:28.720Z,0.50
2023-01-10T05:59:28.899Z,0.51
2023-01-10T06:00:28.666Z,0.51
2023-01-10T06:01:28.726Z,0.51
2023-01-10T06:02:28.703Z,0.51
2023-01-10T06:03:28.612Z,0.51
2023-01-10T06:04:28.576Z,0.50
2023-01-10T06:05:28.561Z,0.51
2023-01-10T06:06:28.546Z,0.51
2023-01-10T06:07:28.516Z,0.51
2023-01-10T06:08:28.489Z,0.51
2023-01-10T06:09:28.461Z,0.51
2023-01-10T06:10:28.443Z,0.50
2023-01-10T06:11:28.420Z,0.51
2023-01-10T06:12:28.398Z,0.51
2023-01-10T06:13:28.380Z,0.51
2023-01-10T06:14:28.356Z,0.51
2023-01-10T06:15:28.343Z,0.51
2023-01-10T06:16:28.292Z,0.51
2023-01-10T06:17:28.264Z,0.51
2023-01-10T06:18:28.236Z,0.50
2023-01-10T06:19:28.224Z,0.50
2023-01-10T06:20:28.199Z,0.50
2023-01-10T06:21:28.202Z,0.51
2023-01-10T06:22:28.127Z,0.50
2023-01-10T06:23:28.113Z,0.51
2023-01-10T06:24:28.092Z,0.51
2023-01-10T06:25:28.203Z,0.50
2023-01-10T06:26:28.072Z,0.50
2023-01-10T06:27:28.034Z,0.51
2023-01-10T06:28:28.108Z,0.51
2023-01-10T06:29:27.965Z,0.51
2023-01-10T06:30:28.221Z,0.51
2023-01-10T06:31:28.048Z,0.51
2023-01-10T06:32:27.911Z,0.51
2023-01-10T06:33:27.893Z,0.50
2023-01-10T06:34:27.858Z,0.51
2023-01-10T06:35:27.856Z,0.51
2023-01-10T06:36:27.822Z,0.51
2023-01-10T06:37:28.211Z,0.51
2023-01-10T06:38:27.776Z,0.51
2023-01-10T06:39:27.747Z,0.51
2023-01-10T06:40:27.714Z,0.51
2023-01-10T06:41:27.694Z,0.52
2023-01-10T06:42:27.731Z,0.51
2023-01-10T06:43:27.644Z,0.52
2023-01-10T06:44:27.649Z,0.53
2023-01-10T06:45:27.586Z,0.54
2023-01-10T06:46:27.564Z,0.54
2023-01-10T06:47:27.737Z,0.54
2023-01-10T06:48:27.530Z,0.54
2023-01-10T06:49:27.523Z,0.54
2023-01-10T06:50:27.495Z,0.55
2023-01-10T06:51:27.500Z,0.56
2023-01-10T06:52:27.726Z,0.58
2023-01-10T06:53:27.430Z,0.58
2023-01-10T06:54:27.421Z,0.58
2023-01-10T06:55:28.451Z,0.58
2023-01-10T06:56:27.348Z,0.57
2023-01-10T06:57:27.723Z,0.58
2023-01-10T06:58:27.303Z,0.60
2023-01-10T06:59:27.268Z,0.63
2023-01-10T07:00:27.238Z,0.65
2023-01-10T07:01:27.303Z,0.68
2023-01-10T07:02:27.295Z,0.73
2023-01-10T07:03:27.296Z,0.73
2023-01-10T07:04:27.196Z,0.74
2023-01-10T07:05:27.157Z,0.79
2023-01-10T07:06:27.101Z,0.82
2023-01-10T07:07:27.116Z,0.84
2023-01-10T07:08:27.215Z,0.89
2023-01-10T07:09:27.116Z,0.91
2023-01-10T07:10:27.219Z,0.97
2023-01-10T07:11:26.974Z,1.00
2023-01-10T07:12:26.924Z,1.05
2023-01-10T07:13:26.904Z,1.08
2023-01-10T07:14:30.105Z,1.11
2023-01-10T07:15:27.213Z,1.11
2023-01-10T07:16:26.893Z,1.12
2023-01-10T07:17:26.790Z,1.16
2023-01-10T07:18:26.759Z,1.22
2023-01-10T07:19:26.747Z,1.33
2023-01-10T07:20:26.755Z,1.38
2023-01-10T07:21:26.665Z,1.38
2023-01-10T07:22:26.738Z,1.44
2023-01-10T07:23:26.610Z,1.46
2023-01-10T07:24:26.732Z,1.52
2023-01-10T07:25:26.552Z,1.53
2023-01-10T07:26:26.518Z,1.53
2023-01-10T07:27:26.726Z,1.56
2023-01-10T07:28:26.448Z,1.59
2023-01-10T07:29:26.416Z,1.63
2023-01-10T07:30:26.374Z,1.68
2023-01-10T07:31:26.456Z,1.66
2023-01-10T07:32:26.727Z,1.73
2023-01-10T07:33:26.260Z,1.75
2023-01-10T07:34:26.209Z,1.79
2023-01-10T07:35:26.222Z,1.77
2023-01-10T07:36:26.141Z,1.82
2023-01-10T07:37:26.257Z,1.84
2023-01-10T07:38:26.069Z,1.84
2023-01-10T07:39:26.028Z,1.88
2023-01-10T07:40:25.991Z,1.92
2023-01-10T07:41:25.958Z,1.96
2023-01-10T07:42:26.303Z,1.99
2023-01-10T07:43:25.923Z,2.00
2023-01-10T07:44:26.238Z,1.95
2023-01-10T07:45:25.813Z,1.94
2023-01-10T07:46:25.811Z,1.85
2023-01-10T07:47:25.736Z,0.94
2023-01-10T07:48:25.704Z,0.76
2023-01-10T07:49:26.700Z,0.81
2023-01-10T07:50:25.660Z,0.70
2023-01-10T07:51:25.696Z,0.68
2023-01-10T07:52:25.742Z,0.62
2023-01-10T07:53:25.651Z,0.58
2023-01-10T07:54:25.658Z,0.54
2023-01-10T07:55:25.661Z,0.50
2023-01-10T07:56:25.667Z,0.50
2023-01-10T07:57:25.733Z,0.50
2023-01-10T07:58:25.698Z,0.50
2023-01-10T07:59:25.702Z,0.49
2023-01-10T08:00:25.716Z,0.50
2023-01-10T08:01:25.804Z,0.50
2023-01-10T08:02:25.932Z,0.50
2023-01-10T08:03:25.932Z,0.50
2023-01-10T08:04:25.759Z,0.50
2023-01-10T08:05:25.759Z,0.50
2023-01-10T08:06:25.784Z,0.50
2023-01-10T08:07:26.264Z,0.50
2023-01-10T08:08:25.786Z,0.51
2023-01-10T08:09:26.239Z,0.51
2023-01-10T08:10:26.330Z,0.50
2023-01-10T08:11:25.807Z,0.51
2023-01-10T08:12:27.741Z,0.51
2023-01-10T08:13:25.801Z,0.51
2023-01-10T08:14:26.319Z,0.53
2023-01-10T08:15:25.797Z,0.55
2023-01-10T08:16:25.899Z,0.54
2023-01-10T08:17:25.779Z,0.55
2023-01-10T08:18:27.272Z,0.56
2023-01-10T08:19:25.761Z,0.60
2023-01-10T08:20:25.749Z,0.61
2023-01-10T08:21:25.746Z,0.60
2023-01-10T08:22:28.926Z,0.64
2023-01-10T08:23:25.683Z,0.64
2023-01-10T08:24:25.669Z,0.64
2023-01-10T08:25:25.665Z,0.66
2023-01-10T08:26:25.742Z,0.68
2023-01-10T08:27:25.626Z,0.70
2023-01-10T08:28:25.609Z,0.71
2023-01-10T08:29:25.601Z,0.74
2023-01-10T08:30:25.587Z,0.74
2023-01-10T08:31:25.878Z,0.74
2023-01-10T08:32:25.555Z,0.73
2023-01-10T08:33:25.574Z,0.73
2023-01-10T08:34:25.505Z,0.73
2023-01-10T08:35:25.489Z,0.73
2023-01-10T08:36:25.741Z,0.73
2023-01-10T08:37:25.467Z,0.73
2023-01-10T08:38:25.458Z,0.75
2023-01-10T08:39:25.814Z,0.76
2023-01-10T08:40:25.400Z,0.80
2023-01-10T08:41:25.368Z,0.80
2023-01-10T08:42:25.348Z,0.81
2023-01-10T08:43:25.317Z,0.83
2023-01-10T08:44:25.749Z,0.82
2023-01-10T08:45:25.286Z,0.84
2023-01-10T08:46:25.765Z,0.88
2023-01-10T08:47:25.247Z,0.83
2023-01-10T08:48:25.235Z,0.91
2023-01-10T08:49:25.240Z,0.92
2023-01-10T08:50:25.214Z,0.98
2023-01-10T08:51:25.262Z,0.96
2023-01-10T08:52:25.176Z,0.98
2023-01-10T08:53:25.153Z,1.02
2023-01-10T08:54:25.175Z,1.07
2023-01-10T08:55:25.121Z,1.04
2023-01-10T08:56:25.260Z,1.08
2023-01-10T08:57:25.033Z,1.11
2023-01-10T08:58:25.036Z,1.14
2023-01-10T08:59:25.016Z,1.18
2023-01-10T09:00:24.954Z,1.19
2023-01-10T09:01:25.497Z,1.22
2023-01-10T09:02:24.925Z,1.26
2023-01-10T09:03:25.372Z,1.31
2023-01-10T09:04:24.856Z,1.34
2023-01-10T09:05:28.608Z,1.36
2023-01-10T09:06:25.297Z,1.36
2023-01-10T09:07:25.034Z,1.37
2023-01-10T09:08:24.754Z,1.40
2023-01-10T09:09:24.792Z,1.45
2023-01-10T09:10:24.671Z,1.53
2023-01-10T09:11:24.650Z,1.57
2023-01-10T09:12:24.576Z,1.59
2023-01-10T09:13:24.553Z,1.66
2023-01-10T09:14:24.556Z,1.70
2023-01-10T09:15:24.528Z,1.75
2023-01-10T09:16:24.517Z,1.76
2023-01-10T09:17:24.766Z,1.80
2023-01-10T09:18:24.447Z,1.83
2023-01-10T09:19:24.765Z,1.87
2023-01-10T09:20:24.372Z,1.98
2023-01-10T09:21:24.355Z,1.99
2023-01-10T09:22:24.297Z,2.01
2023-01-10T09:23:24.257Z,2.02
2023-01-10T09:24:24.280Z,2.08
2023-01-10T09:25:24.246Z,2.13
2023-01-10T09:26:24.201Z,2.17
2023-01-10T09:27:24.142Z,2.19
2023-01-10T09:28:24.133Z,2.27
2023-01-10T09:29:24.078Z,2.37
2023-01-10T09:30:24.035Z,2.39
2023-01-10T09:31:24.126Z,2.44
2023-01-10T09:32:24.266Z,2.51
2023-01-10T09:33:24.005Z,2.52
2023-01-10T09:34:23.889Z,2.54
2023-01-10T09:35:24.273Z,2.61
2023-01-10T09:36:23.820Z,2.63
2023-01-10T09:37:23.765Z,2.64
2023-01-10T09:38:23.865Z,2.66
2023-01-10T09:39:24.654Z,2.74
2023-01-10T09:40:23.629Z,2.84
2023-01-10T09:41:23.610Z,2.90
2023-01-10T09:42:23.568Z,2.95
2023-01-10T09:43:23.801Z,2.93
2023-01-10T09:44:23.814Z,2.97
2023-01-10T09:45:23.442Z,3.09
2023-01-10T09:46:23.483Z,3.01
2023-01-10T09:47:23.505Z,3.12
2023-01-10T09:48:23.363Z,3.20
2023-01-10T09:49:23.304Z,3.21
2023-01-10T09:50:23.253Z,3.26
2023-01-10T09:51:23.243Z,3.25
2023-01-10T09:52:23.196Z,3.33
2023-01-10T09:53:23.285Z,3.34
2023-01-10T09:54:23.435Z,3.71
2023-01-10T09:55:23.088Z,3.52
2023-01-10T09:56:23.115Z,3.44
2023-01-10T09:57:23.091Z,3.47
2023-01-10T09:58:23.080Z,3.59
2023-01-10T09:59:23.655Z,3.61
2023-01-10T10:00:22.934Z,3.66
2023-01-10T10:01:22.991Z,3.63
2023-01-10T10:02:23.034Z,3.73
2023-01-10T10:03:22.894Z,3.72
2023-01-10T10:04:23.114Z,3.71
2023-01-10T10:05:22.883Z,3.85
2023-01-10T10:06:22.840Z,3.80
2023-01-10T10:07:22.811Z,4.00
2023-01-10T10:08:22.705Z,4.00
2023-01-10T10:09:22.656Z,4.02
2023-01-10T10:10:22.888Z,4.06
2023-01-10T10:11:22.588Z,4.04
2023-01-10T10:12:22.570Z,4.10
2023-01-10T10:13:27.501Z,4.13
2023-01-10T10:14:22.492Z,4.14
2023-01-10T10:15:22.783Z,4.17
2023-01-10T10:16:22.380Z,4.21
2023-01-10T10:17:22.225Z,4.25
2023-01-10T10:18:22.190Z,4.64
2023-01-10T10:19:22.172Z,4.50
2023-01-10T10:20:22.293Z,4.56
2023-01-10T10:21:22.067Z,4.62
2023-01-10T10:22:22.039Z,4.73
2023-01-10T10:23:21.999Z,4.79
2023-01-10T10:24:21.955Z,4.72
2023-01-10T10:25:22.328Z,4.92
2023-01-10T10:26:21.932Z,4.81
2023-01-10T10:27:21.945Z,4.83
2023-01-10T10:28:21.829Z,4.86
2023-01-10T10:29:21.949Z,4.71
2023-01-10T10:30:23.346Z,4.75
2023-01-10T10:31:21.975Z,4.74
2023-01-10T10:32:21.841Z,4.58
2023-01-10T10:33:21.806Z,4.57
2023-01-10T10:34:21.742Z,4.36
2023-01-10T10:35:21.885Z,4.22
2023-01-10T10:36:22.165Z,4.09
2023-01-10T10:37:21.732Z,3.68
2023-01-10T10:38:21.799Z,3.80
2023-01-10T10:39:21.590Z,3.58
2023-01-10T10:40:21.651Z,3.42
2023-01-10T10:41:21.490Z,3.31
2023-01-10T10:42:21.439Z,3.31
2023-01-10T10:43:22.054Z,3.31
2023-01-10T10:44:21.383Z,3.30
2023-01-10T10:45:23.432Z,3.17
2023-01-10T10:46:21.304Z,3.18
2023-01-10T10:47:21.257Z,3.19
2023-01-10T10:48:21.311Z,3.17
2023-01-10T10:49:21.188Z,3.34
2023-01-10T10:50:21.144Z,4.53
2023-01-10T10:51:21.182Z,4.40
2023-01-10T10:52:21.313Z,4.15
2023-01-10T10:53:21.008Z,4.06
2023-01-10T10:54:20.978Z,3.96
2023-01-10T10:55:20.953Z,3.96
2023-01-10T10:56:20.935Z,3.79
2023-01-10T10:57:20.890Z,2.64
2023-01-10T10:58:20.887Z,8.79
2023-01-10T10:59:20.886Z,3.60
2023-01-10T11:00:20.819Z,3.29
2023-01-10T11:01:20.991Z,2.70
2023-01-10T11:02:20.802Z,2.84
2023-01-10T11:03:20.744Z,3.00
2023-01-10T11:04:20.732Z,2.94
2023-01-10T11:05:20.959Z,2.91
2023-01-10T11:06:20.698Z,2.87
2023-01-10T11:07:20.805Z,2.81
2023-01-10T11:08:20.621Z,2.76
2023-01-10T11:09:20.583Z,2.72
2023-01-10T11:10:20.552Z,2.70
2023-01-10T11:11:20.525Z,2.68
2023-01-10T11:12:20.804Z,2.70
2023-01-10T11:13:20.455Z,2.68
2023-01-10T11:14:20.420Z,2.63
2023-01-10T11:15:20.400Z,3.09
2023-01-10T11:16:20.399Z,2.90
2023-01-10T11:17:20.317Z,2.55
2023-01-10T11:18:20.307Z,1.45
2023-01-10T11:19:20.267Z,1.47
2023-01-10T11:20:20.364Z,0.91
2023-01-10T11:21:22.093Z,0.88
2023-01-10T11:22:20.207Z,0.88
2023-01-10T11:23:20.195Z,0.86
2023-01-10T11:24:20.185Z,0.69
2023-01-10T11:25:20.407Z,0.81
2023-01-10T11:26:20.167Z,0.80
2023-01-10T11:27:20.178Z,0.76
2023-01-10T11:28:20.147Z,0.76
2023-01-10T11:29:20.127Z,0.82
2023-01-10T11:30:20.336Z,0.88
2023-01-10T11:31:20.349Z,0.91
2023-01-10T11:32:20.111Z,0.94
2023-01-10T11:33:20.601Z,0.98
2023-01-10T11:34:20.349Z,1.01
2023-01-10T11:35:20.171Z,1.07
2023-01-10T11:36:20.038Z,1.11
2023-01-10T11:37:20.317Z,1.16
2023-01-10T11:38:19.987Z,1.20
2023-01-10T11:39:20.315Z,1.29
2023-01-10T11:40:19.926Z,1.31
2023-01-10T11:41:19.905Z,1.39
2023-01-10T11:42:19.903Z,1.45
2023-01-10T11:43:20.270Z,1.55
2023-01-10T11:44:20.818Z,1.62
2023-01-10T11:45:20.836Z,1.64
2023-01-10T11:46:19.853Z,1.67
2023-01-10T11:47:19.704Z,1.74
2023-01-10T11:48:20.280Z,1.78
2023-01-10T11:49:19.856Z,1.82
2023-01-10T11:50:19.777Z,1.81
2023-01-10T11:51:19.567Z,1.88
2023-01-10T11:52:19.840Z,1.91
2023-01-10T11:53:19.502Z,1.97
2023-01-10T11:54:19.455Z,2.00
2023-01-10T11:55:19.491Z,2.05
2023-01-10T11:56:19.391Z,2.08
2023-01-10T11:57:19.825Z,2.08
2023-01-10T11:58:19.330Z,2.12
2023-01-10T11:59:19.295Z,2.18
2023-01-10T12:00:19.292Z,2.21
2023-01-10T12:01:19.280Z,2.28
2023-01-10T12:02:19.364Z,2.27
2023-01-10T12:03:19.204Z,2.34
2023-01-10T12:04:19.154Z,2.42
2023-01-10T12:05:19.196Z,2.40
2023-01-10T12:06:19.092Z,2.46
2023-01-10T12:07:19.323Z,2.48
2023-01-10T12:08:18.988Z,2.50
2023-01-10T12:09:19.327Z,2.57
2023-01-10T12:10:21.011Z,2.60
2023-01-10T12:11:18.879Z,2.70
2023-01-10T12:12:19.325Z,2.69
2023-01-10T12:13:18.801Z,2.78
2023-01-10T12:14:19.066Z,2.75
2023-01-10T12:15:18.721Z,2.73
2023-01-10T12:16:18.787Z,2.59
2023-01-10T12:17:18.831Z,2.34
2023-01-10T12:18:18.621Z,1.99
2023-01-10T12:19:18.619Z,1.52
2023-01-10T12:20:18.561Z,1.36
2023-01-10T12:21:18.547Z,1.31
2023-01-10T12:22:18.855Z,1.28
2023-01-10T12:23:18.503Z,1.19
2023-01-10T12:24:18.468Z,1.70
2023-01-10T12:25:18.450Z,1.97
2023-01-10T12:26:18.409Z,1.81
2023-01-10T12:27:18.834Z,1.65
2023-01-10T12:28:18.358Z,1.56
2023-01-10T12:29:18.314Z,1.61
2023-01-10T12:30:18.287Z,1.66
2023-01-10T12:31:18.335Z,1.68
2023-01-10T12:32:18.225Z,1.70
2023-01-10T12:33:18.335Z,1.73
2023-01-10T12:34:18.141Z,1.71
2023-01-10T12:35:18.103Z,1.78
2023-01-10T12:36:18.065Z,1.82
2023-01-10T12:37:18.029Z,1.88
2023-01-10T12:38:18.364Z,1.89
2023-01-10T12:39:17.961Z,1.90
2023-01-10T12:40:17.932Z,1.97
2023-01-10T12:41:17.897Z,1.99
2023-01-10T12:42:17.864Z,2.06
2023-01-10T12:43:17.874Z,2.05
2023-01-10T12:44:18.341Z,2.09
2023-01-10T12:45:18.099Z,2.12
2023-01-10T12:46:33.625Z,2.18
2023-01-10T12:47:17.955Z,2.18
2023-01-10T12:48:17.861Z,2.21
2023-01-10T12:49:17.600Z,2.25
2023-01-10T12:50:17.530Z,2.28
2023-01-10T12:51:17.489Z,2.33
2023-01-10T12:52:17.462Z,2.31
2023-01-10T12:53:17.931Z,2.36
2023-01-10T12:54:17.386Z,2.36
2023-01-10T12:55:17.457Z,2.32
2023-01-10T12:56:17.320Z,2.29
2023-01-10T12:57:17.253Z,2.19
2023-01-10T12:58:17.344Z,2.18
2023-01-10T12:59:23.749Z,2.13
2023-01-10T13:00:17.148Z,2.13
2023-01-10T13:01:17.274Z,2.14
2023-01-10T13:02:17.149Z,2.08
2023-01-10T13:03:17.354Z,2.06
2023-01-10T13:04:16.983Z,2.06
2023-01-10T13:05:16.989Z,2.01
2023-01-10T13:06:16.915Z,2.00
2023-01-10T13:07:16.870Z,2.00
2023-01-10T13:08:17.258Z,2.00
2023-01-10T13:09:17.322Z,1.98
2023-01-10T13:10:16.786Z,1.93
2023-01-10T13:11:16.730Z,1.94
2023-01-10T13:12:16.680Z,1.92
2023-01-10T13:13:16.852Z,1.88
2023-01-10T13:14:16.640Z,1.87
2023-01-10T13:15:16.593Z,1.86
2023-01-10T13:16:16.560Z,1.86
2023-01-10T13:17:16.533Z,1.86
2023-01-10T13:18:16.856Z,1.83
2023-01-10T13:19:16.855Z,1.84
2023-01-10T13:20:16.429Z,1.83
2023-01-10T13:21:16.397Z,1.83
2023-01-10T13:22:16.363Z,1.80
2023-01-10T13:23:16.332Z,1.76
2023-01-10T13:24:16.355Z,1.76
2023-01-10T13:25:16.378Z,1.75
2023-01-10T13:26:16.379Z,1.76
2023-01-10T13:27:16.177Z,1.74
2023-01-10T13:28:16.238Z,1.75
2023-01-10T13:29:16.357Z,1.70
2023-01-10T13:30:16.089Z,1.68
2023-01-10T13:31:16.458Z,1.66
2023-01-10T13:32:16.036Z,1.64
2023-01-10T13:33:16.032Z,1.65
2023-01-10T13:34:16.367Z,1.63
2023-01-10T13:35:15.945Z,1.62
2023-01-10T13:36:15.949Z,1.62
2023-01-10T13:37:15.878Z,1.62
2023-01-10T13:38:15.862Z,1.62
2023-01-10T13:39:15.889Z,1.61
2023-01-10T13:40:15.800Z,1.61
2023-01-10T13:41:15.773Z,1.58
2023-01-10T13:42:15.802Z,1.59
2023-01-10T13:43:15.715Z,1.58
2023-01-10T13:44:15.875Z,1.54
2023-01-10T13:45:15.654Z,1.57
2023-01-10T13:46:15.971Z,1.53
2023-01-10T13:47:15.578Z,1.54
2023-01-10T13:48:15.545Z,1.53
2023-01-10T13:49:15.507Z,1.54
2023-01-10T13:50:15.494Z,1.52
2023-01-10T13:51:15.868Z,1.52
2023-01-10T13:52:15.405Z,1.51
2023-01-10T13:53:15.376Z,1.47
2023-01-10T13:54:15.340Z,1.49
2023-01-10T13:55:15.368Z,1.46
2023-01-10T13:56:15.367Z,1.48
2023-01-10T13:57:15.230Z,1.46
2023-01-10T13:58:15.222Z,1.44
2023-01-10T13:59:15.166Z,1.45
2023-01-10T14:00:15.132Z,1.45
2023-01-10T14:01:15.446Z,1.43
2023-01-10T14:02:15.113Z,1.43
2023-01-10T14:03:15.040Z,1.41
2023-01-10T14:04:15.057Z,1.42
2023-01-10T14:05:15.375Z,1.40
2023-01-10T14:06:14.947Z,1.42
2023-01-10T14:07:14.930Z,1.38